Date,TemperatureHighF,TemperatureAvgF,TemperatureLowF,DewpointHighF,DewpointAvgF,DewpointLowF,HumidityHigh,HumidityAvg,HumidityLow,PressureMaxIn,PressureMinIn,WindSpeedMaxMPH,WindSpeedAvgMPH,GustSpeedMaxMPH,PrecipitationSumIn
2012-6-5,48,48,48,-100,-100,-100,0,0,100,0.00,40.00,14,14,0,0.00
2012-6-6,52,52,52,-100,-100,-100,0,0,100,30.04,30.04,11,11,0,0.00
2012-6-7,52,52,52,-100,-100,-100,0,0,100,0.00,40.00,2,2,0,0.00
2012-6-9,63,63,63,-100,-100,-100,0,0,100,29.91,29.91,9,9,0,0.00
2012-6-11,55,55,55,-100,-100,-100,0,0,100,0.00,40.00,18,18,0,0.00
2012-6-12,47,47,47,-100,-100,-100,0,0,100,0.00,40.00,8,8,0,0.00
2012-6-17,66,66,66,-100,-100,-100,0,0,100,0.00,40.00,14,14,0,0.00
2012-6-19,60,56,54,-100,-100,-100,0,0,100,29.80,2.98,13,10,0,0.00
2012-6-22,51,51,51,-100,-100,-100,0,0,100,0.00,40.00,16,16,0,0.00
2012-6-25,61,61,61,-100,-100,-100,0,0,100,0.00,40.00,13,13,0,0.00
2012-6-30,67,67,67,-100,-100,-100,0,0,100,0.00,40.00,11,11,0,0.00
2012-7-1,70,70,70,-100,-100,-100,0,0,100,0.00,40.00,3,3,0,0.00
2012-7-3,73,73,73,-100,-100,-100,0,0,100,0.00,40.00,1,1,0,0.00
2012-7-5,69,69,69,-100,-100,-100,0,0,100,0.00,40.00,9,9,0,0.00
2012-7-9,62,62,62,-100,-100,-100,0,0,100,0.00,40.00,3,3,0,0.00
2012-7-12,72,72,72,-100,-100,-100,0,0,100,0.00,40.00,14,10,0,0.00
2012-7-14,75,74,74,-100,-100,-100,0,0,100,0.00,40.00,7,6,0,0.00
2012-7-15,65,65,65,-100,-100,-100,0,0,100,0.00,40.00,7,7,0,0.00
2012-7-17,63,63,63,-100,-100,-100,0,0,100,0.00,40.00,7,7,0,0.00
2012-7-23,78,78,78,-100,-100,-100,0,0,100,0.00,40.00,11,11,0,0.00
2012-7-24,67,67,67,-100,-100,-100,0,0,100,0.00,40.00,5,5,0,0.00
2012-7-25,62,62,62,-100,-100,-100,0,0,100,0.00,40.00,29,29,0,0.00
2012-7-27,63,63,63,-100,-100,-100,0,0,100,0.00,40.00,15,15,0,0.00
2012-7-28,69,69,69,-100,-100,-100,0,0,100,0.00,40.00,17,17,0,0.00
2012-7-29,72,72,72,-100,-100,-100,0,0,100,0.00,40.00,11,11,0,0.00
2012-7-30,73,73,73,-100,-100,-100,0,0,100,0.00,40.00,9,9,0,0.00
2012-8-7,65,65,64,-100,-100,-100,0,0,100,29.97,2.99,23,22,0,0.00
2012-8-9,61,61,61,-100,-100,-100,0,0,100,0.00,40.00,23,23,0,0.00
2012-8-10,62,62,62,-100,-100,-100,0,0,100,0.00,40.00,23,23,0,0.00
2012-8-12,71,70,68,-100,-100,-100,0,0,100,3.00,3.00,17,14,0,0.00
2012-8-16,67,67,67,-100,-100,-100,0,0,100,0.00,40.00,23,23,0,0.00
2012-8-20,64,64,64,-100,-100,-100,0,0,100,30.00,30.00,11,11,0,0.00
2012-8-22,65,65,65,-100,-100,-100,0,0,100,29.92,29.92,26,26,0,0.00
2012-8-29,68,68,68,-100,-100,-100,0,0,100,29.94,29.94,24,24,0,0.00
2012-8-30,69,69,69,-100,-100,-100,0,0,100,29.78,29.78,23,23,0,0.00
2012-8-31,68,68,67,-100,-100,-100,0,0,100,30.20,30.02,21,18,0,0.00
2012-9-1,67,67,67,-100,-100,-100,0,0,100,30.14,30.14,7,7,0,0.00
2012-9-2,62,62,62,-100,-100,-100,0,0,100,30.18,30.18,17,17,0,0.00
2012-9-3,73,70,68,-100,-100,-100,0,0,100,29.98,29.96,13,12,0,0.00
2012-9-4,61,61,61,-100,-100,-100,0,0,100,29.82,29.82,28,28,0,0.00
2012-9-6,68,68,68,-100,-100,-100,0,0,100,29.88,29.88,15,15,0,0.00
2012-9-7,60,60,60,-100,-100,-100,0,0,100,29.82,29.82,13,13,0,0.00
2012-9-8,72,65,60,-100,-100,-100,0,0,100,29.88,29.79,31,26,0,0.00
2012-9-9,67,65,63,-100,-100,-100,0,0,100,29.88,29.88,17,12,0,0.00
2012-9-10,76,64,54,-100,-100,-100,0,0,100,30.18,30.11,18,9,0,0.00
2012-9-11,75,69,66,-100,-100,-100,0,0,100,29.85,29.78,30,23,0,0.00
2012-9-12,68,63,59,-100,-100,-100,0,0,100,31.10,29.75,24,23,0,0.00
2012-9-13,75,62,60,-100,-100,-100,0,0,100,30.20,30.12,26,18,0,0.00
2012-9-14,58,58,58,-100,-100,-100,0,0,100,30.25,30.25,29,29,0,0.00
2012-9-15,76,69,58,-100,-100,-100,0,0,100,30.26,30.15,21,14,0,0.00
2012-9-16,70,70,70,-100,-100,-100,0,0,100,29.78,29.78,16,16,0,0.00
2012-9-17,72,65,61,-100,-100,-100,0,0,100,29.81,29.81,24,16,0,0.00
2012-9-19,50,50,50,-100,-100,-100,0,0,100,0.00,40.00,34,34,0,0.00
2012-9-20,53,52,52,-100,-100,-100,0,0,100,29.79,29.76,20,18,0,0.00
2012-9-21,54,54,54,-100,-100,-100,0,0,100,29.76,29.76,0,0,0,0.00
2012-9-22,56,51,50,-100,-100,-100,0,0,100,30.08,29.78,22,21,0,0.00
2012-9-23,56,56,56,-100,-100,-100,0,0,100,30.17,30.17,17,17,0,0.00
2012-9-24,51,51,51,-100,-100,-100,0,0,100,30.17,30.17,17,17,0,0.00
2012-9-25,50,49,48,-100,-100,-100,0,0,100,29.92,29.87,10,8,0,0.00
2012-9-26,50,50,50,-100,-100,-100,0,0,100,30.16,30.16,14,14,0,0.00
2012-9-27,53,52,52,-100,-100,-100,0,0,100,30.26,30.21,14,10,0,0.00
2012-9-28,59,56,53,-100,-100,-100,0,0,100,30.20,30.10,10,8,0,0.00
2012-9-30,60,58,55,-100,-100,-100,0,0,100,30.00,29.98,20,19,0,0.00
2012-10-1,55,55,55,-100,-100,-100,0,0,100,29.87,29.83,15,14,0,0.00
2012-10-2,52,52,52,-100,-100,-100,0,0,100,29.87,29.87,13,13,0,0.00
2012-10-3,57,57,57,-100,-100,-100,0,0,100,29.93,29.93,23,23,0,0.00
2012-10-4,56,55,55,-100,-100,-100,0,0,100,29.94,29.92,38,31,0,0.00
2012-10-5,48,46,44,-100,-100,-100,0,0,100,30.11,30.08,21,20,0,0.00
2012-10-6,46,43,40,-100,-100,-100,0,0,100,30.08,30.06,25,22,0,0.00
2012-10-7,48,44,42,-100,-100,-100,0,0,100,30.10,29.96,23,15,0,0.00
2012-10-8,48,46,45,-100,-100,-100,0,0,100,29.83,29.62,20,19,0,0.00
2012-10-10,39,39,39,-100,-100,-100,0,0,100,29.76,29.76,32,32,0,0.00
2012-10-11,46,45,44,-100,-100,-100,0,0,100,29.98,29.50,26,24,0,0.00
2012-10-12,50,47,42,-100,-100,-100,0,0,100,30.40,30.26,16,15,0,0.00
2012-10-14,63,59,55,-100,-100,-100,0,0,100,29.79,29.60,24,22,0,0.00
2012-10-15,43,42,42,-100,-100,-100,0,0,100,29.83,29.70,38,30,0,0.00
2012-10-16,44,44,44,-100,-100,-100,0,0,100,29.80,29.80,9,9,0,0.00
2012-10-17,46,46,46,-100,-100,-100,0,0,100,29.40,29.40,18,18,0,0.00
2012-10-19,50,50,49,-100,-100,-100,0,0,100,29.70,29.60,23,14,0,0.00
2012-10-20,49,49,49,-100,-100,-100,0,0,100,29.62,29.62,16,16,0,0.00
2012-10-21,60,57,54,-100,-100,-100,0,0,100,30.10,30.01,11,10,0,0.00
2012-10-22,54,52,51,-100,-100,-100,0,0,100,30.10,30.01,14,10,0,0.00
2012-10-23,50,50,50,-100,-100,-100,0,0,100,30.10,29.80,31,20,0,0.00
2012-10-24,48,48,48,-100,-100,-100,0,0,100,29.81,29.81,7,7,0,0.00
2012-10-25,46,46,46,-100,-100,-100,0,0,100,29.70,29.53,37,26,0,0.00
2012-10-26,46,46,46,-100,-100,-100,0,0,100,29.78,29.78,33,33,0,0.00
2012-10-27,42,42,42,-100,-100,-100,0,0,100,30.30,30.30,15,15,0,0.00
2012-10-28,45,45,45,-100,-100,-100,0,0,100,30.21,30.21,30,30,0,0.00
2012-10-29,43,43,43,-100,-100,-100,0,0,100,30.30,30.30,26,26,0,0.00
2012-10-30,36,36,36,-100,-100,-100,0,0,100,0.00,40.00,32,32,0,0.00
2012-11-4,41,41,41,-100,-100,-100,0,0,100,30.24,30.24,20,20,0,0.00
2012-11-5,40,40,40,-100,-100,-100,0,0,100,30.16,30.16,8,8,0,0.00
2012-11-6,36,36,36,-100,-100,-100,0,0,100,30.01,30.01,17,17,0,0.00
2012-11-7,43,42,42,-100,-100,-100,0,0,100,30.11,30.07,15,13,0,0.00
2012-11-9,40,39,38,-100,-100,-100,0,0,100,30.17,30.17,26,13,0,0.00
2012-11-10,50,50,50,-100,-100,-100,0,0,100,29.87,29.87,25,25,0,0.00
2012-11-11,53,53,53,-100,-100,-100,0,0,100,29.87,29.87,32,32,0,0.00
2012-11-15,44,44,44,-100,-100,-100,0,0,100,30.27,30.27,24,23,0,0.00
2012-11-16,36,34,32,-100,-100,-100,0,0,100,30.43,30.41,16,8,0,0.00
2012-11-17,46,44,42,-100,-100,-100,0,0,100,30.25,30.23,23,17,0,0.00
2012-11-18,50,46,43,-100,-100,-100,0,0,100,30.33,30.30,32,27,0,0.00
2012-11-19,48,34,44,-100,-100,-100,0,0,100,30.31,30.17,23,15,0,0.00
2012-11-20,48,48,48,-100,-100,-100,0,0,100,30.17,30.17,5,5,0,0.00
2012-11-21,48,48,48,-100,-100,-100,0,0,100,30.17,30.17,5,5,0,0.00
2012-11-22,50,42,35,-100,-100,-100,0,0,100,29.64,29.59,30,23,0,0.00
2012-11-23,35,34,33,-100,-100,-100,0,0,100,29.59,29.55,32,28,0,0.00
2012-11-24,20,20,20,-100,-100,-100,0,0,100,30.12,30.12,5,5,0,0.00
2012-11-25,28,28,28,-100,-100,-100,0,0,100,29.90,29.90,5,5,0,0.00
2012-11-26,30,30,30,-100,-100,-100,0,0,100,30.22,29.95,29,26,0,0.00
2012-11-27,32,32,32,-100,-100,-100,0,0,100,30.18,30.18,28,28,0,0.00
2012-11-28,32,29,26,-100,-100,-100,0,0,100,30.22,30.18,28,19,0,0.00
2012-11-29,30,26,21,-100,-100,-100,0,0,100,30.26,30.20,30,26,0,0.00
2012-11-30,33,30,30,-100,-100,-100,0,0,100,30.26,30.13,30,30,0,0.00
2012-12-1,36,34,33,-100,-100,-100,0,0,100,30.13,29.98,37,32,0,0.00
2012-12-2,42,42,42,-100,-100,-100,0,0,100,29.96,29.96,18,18,0,0.00
2012-12-3,43,43,43,-100,-100,-100,0,0,100,30.07,30.07,6,6,0,0.00
2012-12-4,56,56,56,-100,-100,-100,0,0,100,29.92,29.92,23,23,0,0.00
2012-12-5,33,33,33,-100,-100,-100,0,0,100,29.98,29.98,32,32,0,0.00
2012-12-6,37,37,37,-100,-100,-100,0,0,100,29.98,29.88,41,41,0,0.00
2012-12-7,30,29,28,-100,-100,-100,0,0,100,29.97,29.93,23,17,0,0.00
2012-12-8,30,30,30,-100,-100,-100,0,0,100,30.18,30.18,9,9,0,0.00
2012-12-9,35,32,30,-100,-100,-100,0,0,100,30.18,29.97,26,17,0,0.00
2012-12-10,33,33,33,-100,-100,-100,0,0,100,29.79,29.79,22,22,0,0.00
2012-12-11,30,30,30,-100,-100,-100,0,0,100,29.89,29.89,10,10,0,0.00
2012-12-12,28,26,23,-100,-100,-100,0,0,100,30.07,29.93,32,21,0,0.00
2012-12-14,34,34,34,-100,-100,-100,0,0,100,30.22,30.22,15,15,0,0.00
2012-12-15,46,44,41,-100,-100,-100,0,0,100,29.62,29.62,23,20,0,0.00
2012-12-16,46,46,46,-100,-100,-100,0,0,100,29.62,29.62,16,16,0,0.00
2012-12-17,39,36,34,-100,-100,-100,0,0,100,29.72,29.69,21,18,0,0.00
2012-12-18,31,31,31,-100,-100,-100,0,0,100,29.80,29.80,9,9,0,0.00
2012-12-19,31,31,31,-100,-100,-100,0,0,100,29.80,29.80,9,9,0,0.00
2012-12-20,25,25,25,-100,-100,-100,0,0,100,29.78,29.78,29,29,0,0.00
2012-12-21,25,25,25,-100,-100,-100,0,0,100,29.78,29.78,29,29,0,0.00
2012-12-22,22,22,22,-100,-100,-100,0,0,100,29.89,29.89,32,32,0,0.00
2012-12-23,24,24,24,-100,-100,-100,0,0,100,29.97,29.97,28,28,0,0.00
2012-12-24,28,28,28,-100,-100,-100,0,0,100,30.01,30.01,9,9,0,0.00
2012-12-25,31,31,31,-100,-100,-100,0,0,100,30.09,30.09,32,32,0,0.00
2012-12-26,24,24,24,-100,-100,-100,0,0,100,30.36,30.36,14,14,0,0.00
2012-12-29,25,24,24,-100,-100,-100,0,0,100,29.98,29.98,18,13,0,0.00
2012-12-30,25,25,25,-100,-100,-100,0,0,100,0.00,40.00,18,18,0,0.00
2013-1-1,22,22,22,-100,-100,-100,0,0,100,29.99,29.99,28,28,0,0.00